Terminal Aerodrome Forecast
Issued by NWS

Home | Current Version | Previous Version | Text Only | Print | Product List | Glossary On
Versions: 1 2 3 4 5 6 7 8 9 10 11 12 13 14 15 16
926
FTUS45 KREV 221403 AAB
TAFTVL
TAF AMD
KTVL 221403Z 2214/2312 VRB03KT P6SM -SHRA OVC009
     FM221600 04006KT P6SM SCT020 BKN035
     FM221900 05009KT P6SM VCSH SCT035 BKN040
     FM230200 VRB03KT P6SM VCSH SCT020 BKN035=

USA.gov is the U.S. government's official web portal to all federal, state and local government web resources and services.